createdAt,value
2019-01-23T00:32:54.650Z,55.96
2019-01-23T00:35:23.856Z,56.03
2019-01-23T00:37:53.605Z,55.69
2019-01-23T00:40:22.896Z,55.24
2019-01-23T00:42:52.229Z,55.24
2019-01-23T00:45:21.620Z,55.08
2019-01-23T00:47:51.155Z,54.83
2019-01-23T00:50:20.475Z,54.77
2019-01-23T00:52:49.803Z,54.54
2019-01-23T00:55:19.281Z,54.48
2019-01-23T00:57:48.763Z,54.29
2019-01-23T01:00:22.778Z,54.18
2019-01-23T01:02:52.172Z,54.24
2019-01-23T01:05:21.633Z,54.02
2019-01-23T01:07:50.976Z,53.87
2019-01-23T01:10:20.367Z,53.80
2019-01-23T01:12:49.662Z,53.67
2019-01-23T01:15:19.042Z,53.71
2019-01-23T01:17:48.462Z,53.66
2019-01-23T01:20:17.848Z,53.55
2019-01-23T01:22:47.353Z,53.52
2019-01-23T01:25:17.802Z,53.44
2019-01-23T01:27:47.176Z,53.59
2019-01-23T01:30:18.936Z,53.36
2019-01-23T01:32:48.362Z,53.42
2019-01-23T01:35:17.901Z,53.48
2019-01-23T01:37:47.266Z,53.43
2019-01-23T01:40:17.487Z,53.36
2019-01-23T01:42:46.880Z,53.33
2019-01-23T01:45:17.550Z,53.44
2019-01-23T01:47:46.926Z,53.38
2019-01-23T01:50:20.849Z,53.29
2019-01-23T01:52:50.270Z,53.29
2019-01-23T01:55:19.566Z,53.15
2019-01-23T01:57:48.962Z,53.07
2019-01-23T02:00:20.364Z,53.04
2019-01-23T02:02:49.607Z,52.95
2019-01-23T02:05:18.958Z,52.98
2019-01-23T02:07:48.308Z,52.98
2019-01-23T02:10:20.041Z,52.82
2019-01-23T02:12:50.463Z,52.82
2019-01-23T02:15:20.257Z,52.73
2019-01-23T02:17:49.935Z,52.55
2019-01-23T02:20:24.586Z,52.42
2019-01-23T02:22:53.928Z,52.31
2019-01-23T02:25:23.354Z,52.26
2019-01-23T02:27:52.922Z,52.36
2019-01-23T02:30:24.073Z,52.31
2019-01-23T02:32:53.880Z,52.41
2019-01-23T02:35:23.309Z,52.46
2019-01-23T02:37:52.847Z,52.46
2019-01-23T02:40:23.466Z,52.55
2019-01-23T02:42:52.938Z,52.47
2019-01-23T02:45:23.070Z,52.50
2019-01-23T02:47:52.636Z,52.63
2019-01-23T02:50:21.956Z,52.52
2019-01-23T02:52:51.430Z,52.45
2019-01-23T02:55:20.713Z,52.52
2019-01-23T02:57:50.170Z,52.57
2019-01-23T03:00:20.479Z,52.61
2019-01-23T03:02:50.598Z,52.38
2019-01-23T03:05:22.372Z,52.36
2019-01-23T03:07:51.775Z,52.17
2019-01-23T03:10:22.194Z,52.13
2019-01-23T03:12:52.553Z,52.18
2019-01-23T03:15:21.870Z,52.03
2019-01-23T03:17:51.379Z,51.84
2019-01-23T03:20:21.124Z,51.81
2019-01-23T03:22:50.535Z,51.75
2019-01-23T03:25:19.922Z,51.69
2019-01-23T03:27:49.359Z,51.50
2019-01-23T03:30:21.317Z,51.68
2019-01-23T03:32:50.842Z,51.52
2019-01-23T03:35:20.252Z,51.54
2019-01-23T03:37:49.751Z,51.54
2019-01-23T03:40:20.565Z,51.53
2019-01-23T03:42:50.386Z,51.39
2019-01-23T03:45:19.794Z,51.37
2019-01-23T03:47:49.096Z,51.23
2019-01-23T03:50:19.406Z,51.05
2019-01-23T03:52:48.896Z,50.93
2019-01-23T03:55:18.677Z,50.99
2019-01-23T03:57:48.165Z,50.92
2019-01-23T04:00:19.424Z,50.85
2019-01-23T04:02:49.222Z,50.83
2019-01-23T04:05:18.786Z,50.83
2019-01-23T04:07:48.257Z,50.72
2019-01-23T04:10:17.633Z,50.71
2019-01-23T04:12:47.095Z,50.57
2019-01-23T04:15:16.628Z,50.63
2019-01-23T04:17:46.322Z,50.57
2019-01-23T04:20:20.221Z,50.57
2019-01-23T04:22:49.672Z,50.56
2019-01-23T04:25:19.139Z,50.57
2019-01-23T04:27:58.280Z,50.49
2019-01-23T04:30:27.656Z,50.30
2019-01-23T04:32:57.832Z,50.27
2019-01-23T04:35:27.236Z,50.30
2019-01-23T04:37:56.727Z,50.12
2019-01-23T04:40:26.055Z,50.22
2019-01-23T04:42:55.553Z,50.31
2019-01-23T04:45:24.937Z,50.36
2019-01-23T04:47:54.356Z,50.25
2019-01-23T04:50:23.697Z,50.21
2019-01-23T04:53:09.525Z,50.23
2019-01-23T04:55:40.319Z,49.88
2019-01-23T04:58:09.670Z,49.88
2019-01-23T05:00:41.071Z,50.12
2019-01-23T05:03:10.426Z,50.01
2019-01-23T05:05:39.822Z,49.90
2019-01-23T05:08:09.178Z,49.98
2019-01-23T05:10:38.501Z,49.96
2019-01-23T05:13:07.803Z,50.03
2019-01-23T05:15:37.247Z,50.41
2019-01-23T05:18:08.338Z,50.41
2019-01-23T05:20:37.751Z,50.27
2019-01-23T05:23:07.238Z,50.26
2019-01-23T05:25:36.572Z,50.30
2019-01-23T05:28:05.867Z,50.36
2019-01-23T05:30:35.211Z,50.35
2019-01-23T05:33:04.616Z,50.24
2019-01-23T05:35:34.151Z,50.25
2019-01-23T05:38:03.516Z,50.07
2019-01-23T05:40:32.860Z,50.14
2019-01-23T05:43:02.180Z,50.24
2019-01-23T05:45:33.392Z,50.14
2019-01-23T05:48:02.761Z,50.14
2019-01-23T05:50:32.099Z,49.97
2019-01-23T05:53:01.490Z,49.97
2019-01-23T05:55:30.914Z,49.82
2019-01-23T05:58:00.407Z,49.84
2019-01-23T06:00:30.341Z,50.00
2019-01-23T06:02:59.916Z,50.18
2019-01-23T06:05:31.270Z,50.28
2019-01-23T06:08:00.880Z,50.26
2019-01-23T06:10:30.289Z,50.24
2019-01-23T06:12:59.519Z,50.19
2019-01-23T06:15:29.114Z,50.20
2019-01-23T06:17:58.709Z,50.17
2019-01-23T06:20:47.541Z,49.91
2019-01-23T06:23:18.085Z,49.95
2019-01-23T06:25:47.551Z,49.95
2019-01-23T06:28:19.121Z,50.04
2019-01-23T06:30:48.386Z,50.06
2019-01-23T06:36:49.169Z,49.77
2019-01-23T06:39:22.279Z,49.75
2019-01-23T06:41:51.651Z,49.72
2019-01-23T06:44:24.587Z,49.75
2019-01-23T06:46:55.156Z,49.82
2019-01-23T06:49:24.908Z,49.73
2019-01-23T06:51:54.617Z,49.76
2019-01-23T06:54:53.159Z,49.79
2019-01-23T06:57:20.039Z,49.75
2019-01-23T06:59:49.918Z,49.90
2019-01-23T07:02:19.746Z,49.92
2019-01-23T07:04:49.394Z,50.03
2019-01-23T07:07:21.350Z,50.02
2019-01-23T07:10:01.838Z,50.02
2019-01-23T07:12:31.207Z,50.14
2019-01-23T07:15:26.421Z,50.18
2019-01-23T07:17:55.528Z,50.25
2019-01-23T07:20:26.136Z,50.35
2019-01-23T07:23:14.547Z,50.41
2019-01-23T07:25:43.686Z,50.46
2019-01-23T07:28:19.715Z,50.54
2019-01-23T07:30:58.125Z,50.60
2019-01-23T07:33:27.187Z,50.57
2019-01-23T07:35:56.381Z,50.87
2019-01-23T07:39:13.331Z,50.81
2019-01-23T07:41:42.984Z,50.85
2019-01-23T07:44:19.441Z,50.95
2019-01-23T07:46:48.626Z,50.86
2019-01-23T07:49:17.779Z,50.80
2019-01-23T07:51:46.937Z,50.74
2019-01-23T07:54:16.194Z,50.67
2019-01-23T07:56:45.226Z,50.71
2019-01-23T07:59:14.385Z,50.53
2019-01-23T08:01:48.065Z,50.50
2019-01-23T08:04:16.962Z,50.45
2019-01-23T08:06:46.088Z,50.33
2019-01-23T08:09:15.202Z,50.34
2019-01-23T08:11:44.366Z,50.29
2019-01-23T08:14:13.578Z,50.18
2019-01-23T08:16:42.687Z,50.15
2019-01-23T08:19:32.850Z,49.96
2019-01-23T08:22:02.027Z,49.86
2019-01-23T08:24:31.152Z,49.73
2019-01-23T08:27:06.873Z,49.67
2019-01-23T08:29:31.255Z,49.50
2019-01-23T08:32:00.473Z,49.42
2019-01-23T08:34:29.640Z,49.41
2019-01-23T08:36:58.843Z,49.38
2019-01-23T08:39:31.280Z,49.24
2019-01-23T08:42:00.543Z,49.18
2019-01-23T08:44:29.681Z,48.91
2019-01-23T08:46:58.912Z,48.85
2019-01-23T08:49:28.327Z,48.87
2019-01-23T08:51:57.493Z,48.74
2019-01-23T08:54:26.645Z,48.39
2019-01-23T08:56:55.757Z,48.39
2019-01-23T08:59:24.845Z,47.84
2019-01-23T09:01:53.938Z,47.49
2019-01-23T09:04:23.092Z,47.18
2019-01-23T09:06:52.391Z,46.24
2019-01-23T09:09:26.017Z,46.31
2019-01-23T09:11:55.134Z,45.82
2019-01-23T09:14:24.236Z,46.00
2019-01-23T09:16:53.563Z,45.87
2019-01-23T09:19:22.843Z,45.20
2019-01-23T09:21:52.046Z,45.31
2019-01-23T09:24:21.453Z,45.43
2019-01-23T09:26:50.710Z,44.97
2019-01-23T09:29:19.967Z,44.71
2019-01-23T09:32:17.268Z,44.93
2019-01-23T09:35:19.068Z,45.23
2019-01-23T09:38:24.382Z,45.01
2019-01-23T09:41:04.228Z,44.79
2019-01-23T09:44:14.793Z,44.35
2019-01-23T09:47:10.518Z,42.99
2019-01-23T09:50:16.523Z,42.96
2019-01-23T09:53:02.102Z,42.36
2019-01-23T09:55:31.479Z,41.30
2019-01-23T09:58:07.529Z,39.10
2019-01-23T10:00:36.732Z,37.21
2019-01-23T10:03:05.846Z,35.66
2019-01-23T10:05:35.019Z,33.97
2019-01-23T10:08:04.288Z,33.21
2019-01-23T10:10:33.490Z,32.26
2019-01-23T10:13:02.795Z,30.02
2019-01-23T10:15:50.748Z,28.66
2019-01-23T10:18:20.147Z,26.66
2019-01-23T10:20:49.318Z,26.73
2019-01-23T10:23:18.419Z,25.17
2019-01-23T10:25:47.608Z,24.60
2019-01-23T10:28:20.629Z,23.88
2019-01-23T10:30:50.037Z,23.16
2019-01-23T10:33:20.099Z,24.11
2019-01-23T10:35:49.329Z,24.57
2019-01-23T10:38:18.546Z,24.04
2019-01-23T10:40:47.709Z,24.91
2019-01-23T10:43:16.910Z,24.91
2019-01-23T10:45:46.665Z,25.20
2019-01-23T10:48:16.780Z,25.35
2019-01-23T10:50:46.087Z,25.86
2019-01-23T10:53:15.350Z,26.07
2019-01-23T10:55:44.508Z,26.08
2019-01-23T10:58:14.044Z,26.08
2019-01-23T11:00:43.276Z,25.97
2019-01-23T11:03:12.557Z,25.46
2019-01-23T11:05:41.675Z,25.49
2019-01-23T11:08:10.896Z,25.46
2019-01-23T11:10:40.095Z,26.04
2019-01-23T11:13:11.164Z,26.24
2019-01-23T11:15:43.091Z,26.08
2019-01-23T11:18:12.523Z,25.98
2019-01-23T11:20:41.818Z,26.21
2019-01-23T11:23:11.302Z,26.30
2019-01-23T11:25:40.612Z,26.46
2019-01-23T11:28:09.874Z,26.64
2019-01-23T11:30:39.200Z,27.22
2019-01-23T11:33:08.483Z,27.18
2019-01-23T11:35:37.570Z,27.56
2019-01-23T11:38:06.771Z,27.76
2019-01-23T11:40:36.860Z,27.83
2019-01-23T11:43:15.910Z,27.70
2019-01-23T11:45:45.804Z,28.07
2019-01-23T11:48:35.809Z,27.94
2019-01-23T11:51:06.782Z,28.12
2019-01-23T11:53:37.901Z,28.57
2019-01-23T11:56:30.624Z,28.71
2019-01-23T15:19:40.579Z,39.72
2019-01-23T15:22:10.715Z,39.86
2019-01-23T15:24:43.179Z,39.72
2019-01-23T15:27:12.536Z,39.83
2019-01-23T15:29:41.712Z,39.87
2019-01-23T15:32:17.450Z,39.76
2019-01-23T15:34:48.373Z,39.86
2019-01-23T15:37:17.503Z,40.02
2019-01-23T15:39:46.655Z,40.36
2019-01-23T15:42:15.922Z,40.50
2019-01-23T15:44:45.205Z,40.46
2019-01-23T15:47:14.506Z,40.53
2019-01-23T15:49:43.827Z,40.70
2019-01-23T15:52:12.974Z,40.59
2019-01-23T15:54:42.375Z,40.58
2019-01-23T15:57:11.461Z,40.53
2019-01-23T15:59:40.687Z,40.53
2019-01-23T16:02:09.899Z,40.77
2019-01-23T16:04:39.343Z,40.89
2019-01-23T16:07:08.948Z,41.00
2019-01-23T16:09:38.514Z,41.01
2019-01-23T16:12:08.053Z,40.77
2019-01-23T16:14:37.569Z,40.82
2019-01-23T16:17:07.161Z,41.04
2019-01-23T16:19:37.414Z,41.00
2019-01-23T16:22:06.831Z,41.12
2019-01-23T16:24:36.235Z,41.27
2019-01-23T16:27:07.631Z,41.37
2019-01-23T16:29:37.087Z,41.40
2019-01-23T16:32:06.437Z,41.36
2019-01-23T16:34:35.888Z,41.46
2019-01-23T16:37:07.721Z,41.69
2019-01-23T16:39:37.686Z,41.79
2019-01-23T16:42:07.497Z,42.05
2019-01-23T16:44:44.115Z,42.22
2019-01-23T16:47:13.732Z,42.24
2019-01-23T16:49:43.308Z,42.36
2019-01-23T16:52:12.833Z,42.19
2019-01-23T16:54:42.335Z,42.28
2019-01-23T16:57:11.913Z,42.29
2019-01-23T16:59:41.421Z,42.37
2019-01-23T17:02:17.914Z,42.48
2019-01-23T17:04:48.457Z,42.53
2019-01-23T17:07:19.270Z,42.33
2019-01-23T17:09:49.120Z,42.29
2019-01-23T17:12:18.983Z,42.40
2019-01-23T17:14:50.052Z,42.57
2019-01-23T17:17:20.008Z,42.45
2019-01-23T17:19:50.518Z,42.66
2019-01-23T17:22:21.560Z,42.68
2019-01-23T17:24:51.482Z,42.68
2019-01-23T17:27:21.783Z,42.72
2019-01-23T17:29:51.573Z,42.59
2019-01-23T17:32:21.811Z,42.64
2019-01-23T17:34:51.523Z,42.60
2019-01-23T17:37:24.245Z,42.51
2019-01-23T17:40:07.919Z,42.36
2019-01-23T17:42:38.199Z,42.35
2019-01-23T17:45:25.617Z,42.51
2019-01-23T17:48:29.647Z,42.56
2019-01-23T17:51:03.101Z,42.58
2019-01-23T17:53:32.405Z,42.62
2019-01-23T17:56:01.543Z,42.75
2019-01-23T17:58:30.902Z,42.78
2019-01-23T18:01:04.776Z,42.77
2019-01-23T18:03:34.001Z,42.88
2019-01-23T18:06:03.183Z,42.93
2019-01-23T18:08:32.814Z,42.87
2019-01-23T18:11:01.926Z,42.92
2019-01-23T18:13:31.342Z,43.01
2019-01-23T18:16:10.031Z,42.84
2019-01-23T18:18:39.286Z,42.94
2019-01-23T18:21:08.915Z,43.06
2019-01-23T18:23:38.181Z,43.02
2019-01-23T18:26:07.402Z,42.97
2019-01-23T18:28:42.361Z,43.04
2019-01-23T18:31:53.509Z,43.09
2019-01-23T18:35:07.130Z,43.03
2019-01-23T18:38:06.726Z,43.10
2019-01-23T18:41:47.465Z,43.50
2019-01-23T18:44:47.320Z,43.58
2019-01-23T18:47:45.365Z,43.69
2019-01-23T18:50:45.230Z,43.73
2019-01-23T18:53:14.426Z,43.94
2019-01-23T18:55:43.587Z,44.06
2019-01-23T18:58:12.846Z,44.07
2019-01-23T19:00:42.144Z,44.15
2019-01-23T19:03:11.837Z,44.23
2019-01-23T19:05:45.978Z,44.14
2019-01-23T19:08:24.096Z,44.20
2019-01-23T19:10:56.768Z,44.28
2019-01-23T19:13:56.556Z,44.34
2019-01-23T19:16:31.455Z,44.39
2019-01-23T19:19:01.844Z,44.47
2019-01-23T19:21:34.501Z,44.46
2019-01-23T19:24:51.795Z,44.48
2019-01-23T19:27:22.611Z,44.62
2019-01-23T19:29:53.020Z,44.52
2019-01-23T19:33:13.262Z,44.50
2019-01-23T19:35:49.317Z,44.50
2019-01-23T19:38:26.711Z,44.56
2019-01-23T19:41:04.748Z,44.64
2019-01-23T20:44:25.636Z,45.25
2019-01-23T20:47:14.425Z,45.32
2019-01-23T20:49:43.571Z,45.34
2019-01-23T20:52:12.664Z,45.32
2019-01-23T20:54:43.908Z,45.24
2019-01-23T20:57:14.861Z,45.25
2019-01-23T20:59:44.097Z,45.12
2019-01-23T21:02:13.257Z,45.09
2019-01-23T21:04:42.315Z,45.15
2019-01-23T21:07:11.359Z,45.20
2019-01-23T21:09:40.458Z,45.04
2019-01-23T21:12:09.585Z,45.19
2019-01-23T21:14:41.335Z,45.19
2019-01-23T21:17:10.396Z,45.19
2019-01-23T21:19:41.544Z,45.15
2019-01-23T21:22:10.609Z,45.11
2019-01-23T21:24:39.850Z,45.03
2019-01-23T21:27:08.867Z,45.01
2019-01-23T21:29:37.921Z,45.02
2019-01-23T21:32:06.953Z,45.08
2019-01-23T21:34:35.996Z,45.35
2019-01-23T21:37:05.290Z,45.42
2019-01-23T21:39:34.851Z,45.42
2019-01-23T21:42:03.942Z,45.51
2019-01-23T21:44:33.034Z,45.51
2019-01-23T21:47:02.087Z,45.16
2019-01-23T21:49:31.102Z,45.16
2019-01-23T21:52:04.815Z,45.58
2019-01-23T21:54:39.146Z,45.18
2019-01-23T21:57:09.092Z,45.18
2019-01-23T21:59:38.149Z,45.18
2019-01-23T22:02:07.394Z,45.23
2019-01-23T22:04:36.436Z,45.27
2019-01-23T22:07:05.537Z,45.48
2019-01-23T22:09:34.602Z,45.57
2019-01-23T22:12:03.754Z,45.58
2019-01-23T22:14:32.827Z,45.76
2019-01-23T22:17:02.112Z,45.84
2019-01-23T22:19:31.148Z,45.57
2019-01-23T22:22:00.202Z,45.68
2019-01-23T22:24:29.257Z,45.73
2019-01-23T22:26:58.330Z,45.63
2019-01-23T22:29:27.385Z,45.46
2019-01-23T22:31:56.502Z,45.40
2019-01-23T22:34:25.529Z,45.58
2019-01-23T22:36:57.563Z,45.58
2019-01-23T22:39:26.594Z,45.42
2019-01-23T22:41:55.630Z,45.48
2019-01-23T22:44:25.886Z,45.75
2019-01-23T22:46:54.926Z,45.75
2019-01-23T22:49:23.956Z,45.68
2019-01-23T22:51:52.928Z,45.44
2019-01-23T22:54:21.992Z,45.46
2019-01-23T22:56:52.261Z,45.46
2019-01-23T22:59:21.277Z,45.48
2019-01-23T23:01:50.224Z,45.61
2019-01-23T23:04:19.283Z,45.61
2019-01-23T23:06:48.337Z,45.38
2019-01-23T23:09:17.389Z,45.34
2019-01-23T23:11:46.436Z,45.23
2019-01-23T23:14:15.452Z,45.39
2019-01-23T23:16:44.539Z,45.39
2019-01-23T23:19:13.530Z,45.53
2019-01-23T23:21:42.496Z,45.72
2019-01-23T23:24:11.509Z,45.89
2019-01-23T23:26:40.571Z,45.96
2019-01-23T23:29:09.484Z,46.10
2019-01-23T23:31:38.519Z,46.16
2019-01-23T23:34:10.019Z,46.16
2019-01-23T23:36:38.335Z,46.32
2019-01-23T23:39:09.759Z,46.41
2019-01-23T23:41:38.831Z,46.43
2019-01-23T23:44:07.844Z,46.45
2019-01-23T23:46:36.905Z,46.45
2019-01-23T23:49:05.931Z,46.60
2019-01-23T23:51:34.976Z,46.62
2019-01-23T23:54:03.924Z,46.62
2019-01-23T23:56:32.969Z,46.59
2019-01-23T23:59:02.026Z,46.42
